Defiance, OH

8:51 AM EDT on May 30, 2017 (GMT -0400)
| | Change Station
Active Advisory: Flood Warning

Elev -9999 ft 0.00 °N, 0.00 °E | Updated

Clear
Clear
°F
Feels Like °F
N
Wind Variable Wind from North
Gusts mph

Today
High -- | Low -- °F
--% Chance of Precip.
Yesterday
High -- | Low -- °F
Precip. -- in
Pressure 29.94 in
Visibility 10.0 miles
Clouds Clear
Dew Point Not available.
Humidity Not available.
Rainfall --
Snow Depth Not available.
6:07 AM 9:03 PM
Waxing Crescent, 29% visible
METAR KDFI 301153Z AUTO 21005KT 10SM CLR 16/12 A2995 RMK AO2 SLP139 T01560117 10161 20117 53012
Pressure 29.94 in
Visibility 10.0 miles
Clouds Clear
Dew Point Not available.
Humidity Not available.
Rainfall --
Snow Depth Not available.
6:07 AM 9:03 PM
Waxing Crescent, 29% visible
METAR KDFI 301153Z AUTO 21005KT 10SM CLR 16/12 A2995 RMK AO2 SLP139 T01560117 10161 20117 53012

Get Your Daily Forecast Email!

Thanks for signing up!

Be on the lookout for a verification email in your inbox.

You'll start receiving severe weather alerts in your inbox..

×

10-Day Weather Forecast

Almanac

Astronomy

May. 30, 2017 Rise Set
Actual Time
Civil Twilight
Nautical Twilight
Astronomical Twilight
Moon
Length of Visible Light
Length of Day
Tomorrow will be .
, % of the Moon is Illuminated

Today's Extremes

State Highs State Lows

Community

WunderPhotos

Category 6

Welcome to Category 6. This is the collective home for Weather Underground's featured writeups by Dr. Jeff Masters (right), Bob Henson (left), Chris Burt, and other regular contributors.

Nearby

Air Quality

  Air Quality AQ Index Pollutant
Not available.

Snow Depth

Station Depth Elevation

Earthquake Activity

City Distance Mag. Time & Date
Minimum magnitude displayed is 2.5.

Coastal Water Temperatures

Place Temperature

Stations

Nearby Weather Stations

Station Location Temp. Windchill Dew Point Humidity Wind Precip. Elev Updated Type
                   

Watches & Warnings

Flood Warning
Issued: 9:46 PM EDT May. 29, 2017 – National Weather Service

the Flood Warning has been extended for
the Maumee River near Defiance
* until late Tuesday night.
* At 9 PM Monday the stage was 10.3 feet and falling.
* Minor flooding is occurring and minor flooding is forecast.
* Flood stage is 10.0 feet.
* Forecast... the river will fall below the 10.0 foot flood stage
around 5 am Tuesday may 30.
* At 10.0 feet... flooding occurs in Kingsbury and Pontiac Parks.



Lat... Lon 4121 8465 4127 8467 4131 8431 4128 8431